METAR AND TAF INFORMATION
METAR FOR LEAM
ADDS - METARS form results

(1846 UTC 16 May 2022)
Data provider http://aviationweather.gov/metar/data/
 
METAR text: LEAM 161830Z VRB02KT CAVOK 22/16 Q1017
Conditions at: LEAM (ALMERIA AIRPORT , ES) observed 1830 UTC 16 May 2022
Temperature: 22.0°C (72°F)
Dewpoint: 16.0°C (61°F) [RH = 69%]
Pressure (altimeter): 30.03 inches Hg (1017.0 mb)
Winds: variable direction winds at 2 MPH (2 knots; 1.0 m/s)
Visibility: 6 or more miles (10+ km)
Ceiling: ceiling and visibility are OK
Clouds: unknown
Weather: no significant weather observed at this time

METAR text: LEAM 161800Z 17003KT 140V200 CAVOK 22/16 Q1017
Conditions at: LEAM (ALMERIA AIRPORT , ES) observed 1800 UTC 16 May 2022
Temperature: 22.0°C (72°F)
Dewpoint: 16.0°C (61°F) [RH = 69%]
Pressure (altimeter): 30.03 inches Hg (1017.0 mb)
Winds: from the S (170 degrees) at 3 MPH (3 knots; 1.5 m/s)
Visibility: 6 or more miles (10+ km)
Ceiling: ceiling and visibility are OK
Clouds: unknown
Weather: no significant weather observed at this time

Forecast for: LEAM (ALMERIA AIRPORT , ES)
Text: TAF LEAM 161700Z 1618/1718 14005KT CAVOK TX25/1714Z TN17/1705Z
Forecast period: 1800 UTC 16 May 2022 to 0800 UTC 17 May 2022
Forecast type: FROM: standard forecast or significant change
Winds: from the SE (140 degrees) at 6 MPH (5 knots; 2.6 m/s)
Visibility: 6 or more miles (10+ km)
Ceiling: unknown
Clouds: missing
Weather: no significant weather forecast for this period
Text: BECMG 1708/1710 20010KT
Forecast period: 0800 to 1800 UTC 17 May 2022
Forecast type: BECOMING: Conditions expected to become as follows by 1000 UTC 17 May 2022
Winds: from the SSW (200 degrees) at 12 MPH (10 knots; 5.1 m/s)
Visibility: 6 or more miles (10+ km)
Ceiling: unknown
Clouds: missing
Weather: no significant weather forecast for this period

 AIRPORT MAP

 RUNWAY INFORMATION
Runway 08 Runway length 10499 ft Runway width 148 ft
Runway elevation 26 ft Runway displaced threshold 492 ft Runway heading 73
Runway 26 Runway length 10499 ft Runway width 148 ft
Runway elevation 70 ft Runway displaced threshold 0 ft Runway heading 253

 AIRPORT FREQUENCIES
Type APP Name APP Frequency 118.35 MHZ
Type GND Name GND Frequency 121.7 MHZ
Type TWR Name TWR Frequency 118.35 MHZ

 AIRPORT NEAR NAVIGATION AIDS
Type NDB Name Almeria Frequency 284 KHZ
Type NDB Name Almeria Frequency 310 KHZ
Type VOR-DME Name Almeria Frequency 114100 KHZ





Powered by Virtual Airlines Manager

Maps by Rafael Santos